CYSC

Details ICAO CYSC (YSC)
Name SHERBROOKE
Region Canada
Timezone America/Montreal (UTC-5.0)
Plans Departing 38
Arriving 37
Stats Elevation 792 ft / 241 m (AMSL)
Location 45.438500° -71.691400°
Runways 1
Magnetic Variation 15.170° W
Sunrise 2019-02-21 11:40:49 UTC / 2019-02-21 06:40:49 Local
Sunset 2019-02-21 22:22:57 UTC / 2019-02-21 17:22:57 Local
Advertisement - Login to hide

Runways

ID Width Length Bearing (true/mag) Surface Threshold Overrun Markings Lighting
13 150 ft / 46 m 5,988 ft / 1,825 m 118.88° / 134.05° ASPHALT 0 ft / 0 m 0 ft / 0 m APP EDGE THRESHOLD ODALS
31 150 ft / 46 m 5,988 ft / 1,825 m 298.90° / 314.07° ASPHALT 0 ft / 0 m 0 ft / 0 m APP EDGE THRESHOLD

Map

Weather


0- 5 10 15 20 25 30 35+ Temperature / °C

Clouds and Precipitation
Forecast for 2019-02-21 18:00 UTC. Updated 9 minutes ago

Ground ~20,000 ft ~40,000 ft Winds

METAR

CYSC 211538Z AUTO 30002KT 1 1/2SM -SN BKN006 BKN012 OVC017 M03/M04 A2971 RMK SLP075

TAF

Not found

Frequencies

Recorded 126.25 MHz AWOS
Tower 123.50 MHz MF
Unicom 123.50 MHz CTAF/UNICOM
Warning: Do not use this data for real-world aviation or navigation. No guarantee of current accuracy is given.